Time;durP1;ratioP1;P1;durP2;ratioP2;P2;SDS_P1;SDS_P2;PMS_P1;PMS_P2;Temp;Humidity;BMP_temperature;BMP_pressure;BME280_temperature;BME280_humidity;BME280_pressure;Samples;Min_cycle;Max_cycle;Signal;HPM_P1;HPM_P2
2024/02/15 00:01:43;;;;;;;9.90;4.85;;;;;;;11.56;100.00;101560.72;5115866;28;20124;-67
2024/02/15 00:04:33;;;;;;;10.60;4.90;;;;;;;11.55;100.00;101559.09;5096040;28;20141;-67
2024/02/15 00:07:22;;;;;;;8.93;4.78;;;;;;;11.55;100.00;101554.44;5095928;28;20400;-67
2024/02/15 00:10:10;;;;;;;8.98;5.07;;;;;;;11.55;100.00;101550.91;5082190;28;20040;-67
2024/02/15 00:12:59;;;;;;;8.93;4.63;;;;;;;11.53;100.00;101551.13;5104313;27;20171;-66
2024/02/15 00:15:48;;;;;;;10.18;5.38;;;;;;;11.55;100.00;101548.16;5116085;27;20059;-67
2024/02/15 00:18:36;;;;;;;8.35;4.07;;;;;;;11.52;100.00;101550.31;5098909;27;20043;-66
2024/02/15 00:21:24;;;;;;;10.30;5.40;;;;;;;11.54;100.00;101552.78;5094878;28;20153;-67
2024/02/15 00:24:14;;;;;;;8.55;4.70;;;;;;;11.55;100.00;101542.72;5082745;27;20063;-68
2024/02/15 00:27:02;;;;;;;13.60;5.65;;;;;;;11.56;100.00;101538.88;5099814;28;20052;-67
2024/02/15 00:29:50;;;;;;;12.63;4.65;;;;;;;11.56;100.00;101539.69;5084754;28;20050;-67
2024/02/15 00:32:39;;;;;;;11.13;5.70;;;;;;;11.55;100.00;101538.06;5098922;28;20089;-67
2024/02/15 00:35:27;;;;;;;10.38;5.80;;;;;;;11.55;100.00;101548.16;5113003;28;20036;-66
2024/02/15 00:38:16;;;;;;;10.98;5.70;;;;;;;11.55;100.00;101542.72;5109034;27;20043;-67
2024/02/15 00:41:05;;;;;;;12.00;6.43;;;;;;;11.55;100.00;101548.16;5088942;28;20044;-66
2024/02/15 00:43:53;;;;;;;10.57;5.45;;;;;;;11.56;100.00;101549.81;5097151;28;20047;-66
2024/02/15 00:46:41;;;;;;;10.75;5.00;;;;;;;11.59;100.00;101543.81;5113670;28;20044;-67
2024/02/15 00:49:29;;;;;;;8.30;4.90;;;;;;;11.58;100.00;101555.84;5113575;27;20045;-67
2024/02/15 00:52:18;;;;;;;9.40;5.10;;;;;;;11.58;100.00;101550.38;5111533;27;20036;-67
2024/02/15 00:55:06;;;;;;;11.52;5.47;;;;;;;11.59;100.00;101549.28;5082926;28;20094;-67
2024/02/15 00:57:54;;;;;;;10.30;5.13;;;;;;;11.59;100.00;101543.81;5112879;28;20123;-67
2024/02/15 01:00:42;;;;;;;12.50;5.72;;;;;;;11.59;100.00;101541.09;5112416;28;20181;-66
2024/02/15 01:03:31;;;;;;;12.25;5.55;;;;;;;11.61;100.00;101555.31;5105327;28;20051;-67
2024/02/15 01:06:19;;;;;;;12.18;6.00;;;;;;;11.61;100.00;101552.59;5098265;28;20058;-67
2024/02/15 01:09:08;;;;;;;10.48;4.90;;;;;;;11.60;100.00;101559.13;5097897;28;20118;-66
2024/02/15 01:11:56;;;;;;;11.07;5.50;;;;;;;11.60;100.00;101542.75;5097744;28;20031;-66
2024/02/15 01:14:44;;;;;;;11.18;5.78;;;;;;;11.59;100.00;101549.28;5104209;27;20031;-68
2024/02/15 01:17:32;;;;;;;10.23;4.75;;;;;;;11.59;100.00;101539.19;5113051;28;20039;-66
2024/02/15 01:20:21;;;;;;;11.18;4.53;;;;;;;11.59;100.00;101536.44;5114586;27;20118;-67
2024/02/15 01:23:09;;;;;;;9.65;4.35;;;;;;;11.60;100.00;101534.56;5107129;28;20069;-67
2024/02/15 01:25:57;;;;;;;10.07;4.55;;;;;;;11.59;100.00;101532.91;5098262;28;20044;-67
2024/02/15 01:28:45;;;;;;;12.15;5.63;;;;;;;11.60;100.00;101529.94;5113048;27;20043;-66
2024/02/15 01:31:33;;;;;;;12.93;5.43;;;;;;;11.60;100.00;101524.47;5096889;28;20050;-67
2024/02/15 01:34:21;;;;;;;12.82;4.93;;;;;;;11.60;100.00;101518.19;5075146;28;20044;-67
2024/02/15 01:37:10;;;;;;;10.15;4.65;;;;;;;11.61;100.00;101525.28;5078195;28;20055;-67
2024/02/15 01:39:58;;;;;;;10.90;5.40;;;;;;;11.61;100.00;101525.28;5091054;27;20046;-66
2024/02/15 01:42:46;;;;;;;10.95;5.15;;;;;;;11.59;100.00;101521.97;5132775;27;20046;-67
2024/02/15 01:45:35;;;;;;;12.57;5.80;;;;;;;11.58;100.00;101526.63;5112617;28;20047;-67
2024/02/15 01:48:23;;;;;;;14.02;5.07;;;;;;;11.58;100.00;101514.88;5112850;28;20075;-66
2024/02/15 01:51:12;;;;;;;13.85;5.28;;;;;;;11.57;100.00;101522.25;5097424;28;20039;-66
2024/02/15 01:54:01;;;;;;;16.30;5.15;;;;;;;11.57;100.00;101518.69;5096980;28;20039;-68
2024/02/15 01:56:49;;;;;;;10.10;4.68;;;;;;;11.56;100.00;101506.94;5113162;28;20480;-67
2024/02/15 01:59:37;;;;;;;13.40;4.60;;;;;;;11.58;100.00;101499.34;5113104;28;20035;-67
2024/02/15 02:02:26;;;;;;;11.50;4.50;;;;;;;11.59;100.00;101505.59;5097801;28;20071;-68
2024/02/15 02:05:14;;;;;;;12.85;4.75;;;;;;;11.59;100.00;101494.69;5110544;27;20051;-67
2024/02/15 02:08:04;;;;;;;12.38;4.85;;;;;;;11.57;100.00;101492.25;5109656;27;20039;-67
2024/02/15 02:10:53;;;;;;;8.55;4.20;;;;;;;11.56;100.00;101501.50;5117108;27;20042;-66
2024/02/15 02:13:41;;;;;;;11.48;4.63;;;;;;;11.56;100.00;101493.31;5109707;28;20039;-66
2024/02/15 02:16:31;;;;;;;12.50;4.72;;;;;;;11.55;100.00;101499.03;5084205;27;20038;-68
2024/02/15 02:19:20;;;;;;;12.18;4.57;;;;;;;11.55;100.00;101488.13;5101790;28;20403;-67
2024/02/15 02:22:09;;;;;;;12.18;4.65;;;;;;;11.55;100.00;101488.13;5096454;28;20063;-67
2024/02/15 02:25:10;;;;;;;8.77;3.90;;;;;;;11.55;100.00;101479.94;5111079;28;20399;-67
2024/02/15 02:27:58;;;;;;;12.13;4.43;;;;;;;11.52;100.00;101487.56;5087304;28;20480;-67
2024/02/15 02:30:47;;;;;;;10.60;4.57;;;;;;;11.52;100.00;101482.09;5117590;27;20057;-67
2024/02/15 02:33:35;;;;;;;9.93;3.75;;;;;;;11.51;100.00;101483.16;5133045;27;20082;-67
2024/02/15 02:36:26;;;;;;;10.38;4.00;;;;;;;11.52;100.00;101473.91;5112904;27;20484;-67
2024/02/15 02:39:14;;;;;;;14.07;4.82;;;;;;;11.52;100.00;101475.81;5110530;28;20035;-67
2024/02/15 02:42:02;;;;;;;11.20;4.72;;;;;;;11.50;100.00;101478.78;5096654;28;20058;-67
2024/02/15 02:44:50;;;;;;;13.05;4.13;;;;;;;11.50;100.00;101481.53;5076384;28;20086;-67
2024/02/15 02:47:38;;;;;;;13.02;4.70;;;;;;;11.50;100.00;101477.97;5077142;28;20438;-67
2024/02/15 02:50:27;;;;;;;14.20;4.85;;;;;;;11.50;100.00;101470.59;5106753;28;20495;-67
2024/02/15 02:53:15;;;;;;;10.75;3.83;;;;;;;11.49;100.00;101473.59;5110847;28;20164;-68
2024/02/15 02:56:03;;;;;;;11.27;4.50;;;;;;;11.48;100.00;101475.50;5112005;28;20048;-67
2024/02/15 02:58:52;;;;;;;10.65;4.32;;;;;;;11.49;100.00;101468.94;5096299;28;20046;-67
2024/02/15 03:07:24;;;;;;;9.30;3.67;;;;;;;11.50;100.00;101470.59;5088841;28;20059;-66
2024/02/15 03:10:13;;;;;;;10.05;4.00;;;;;;;11.51;100.00;101466.78;5109633;28;20132;-67
2024/02/15 03:13:04;;;;;;;10.57;3.72;;;;;;;11.53;100.00;101466.53;5095956;28;20035;-67
2024/02/15 03:15:52;;;;;;;11.05;4.20;;;;;;;11.54;100.00;101464.63;5111211;28;20521;-67
2024/02/15 03:18:41;;;;;;;9.85;3.50;;;;;;;11.53;100.00;101466.53;5094138;28;20544;-66
2024/02/15 03:21:29;;;;;;;11.80;4.47;;;;;;;11.52;100.00;101465.72;5087409;27;20043;-66
2024/02/15 03:24:17;;;;;;;10.02;3.83;;;;;;;11.53;100.00;101461.06;5117658;27;20043;-67
2024/02/15 03:27:05;;;;;;;11.13;3.75;;;;;;;11.54;100.00;101464.63;5115536;28;20032;-67
2024/02/15 03:29:54;;;;;;;10.57;4.00;;;;;;;11.53;100.00;101463.81;5113876;28;20114;-67
2024/02/15 03:32:42;;;;;;;13.27;3.55;;;;;;;11.52;100.00;101463.00;5116010;27;20475;-67
2024/02/15 03:35:31;;;;;;;13.32;3.95;;;;;;;11.54;100.00;101456.44;5115956;28;20040;-67
2024/02/15 03:38:19;;;;;;;14.88;4.30;;;;;;;11.54;100.00;101449.06;5112237;28;20039;-67
2024/02/15 03:41:07;;;;;;;8.80;3.40;;;;;;;11.54;100.00;101448.25;5093650;28;20048;-66
2024/02/15 03:43:55;;;;;;;9.95;3.40;;;;;;;11.55;100.00;101455.38;5097501;28;20046;-67
2024/02/15 03:46:43;;;;;;;8.65;3.58;;;;;;;11.56;100.00;101463.28;5101449;28;20512;-66
2024/02/15 03:49:34;;;;;;;8.57;3.15;;;;;;;11.56;100.00;101457.00;5097622;28;20443;-66
2024/02/15 03:52:22;;;;;;;9.98;3.22;;;;;;;11.56;100.00;101457.00;5114646;28;20040;-66
2024/02/15 03:55:10;;;;;;;12.02;3.47;;;;;;;11.57;100.00;101458.63;5081419;28;20040;-67
2024/02/15 03:57:58;;;;;;;8.45;3.30;;;;;;;11.57;100.00;101456.75;5088123;28;20048;-66
2024/02/15 04:00:46;;;;;;;8.48;3.25;;;;;;;11.56;100.00;101457.81;5134108;28;20059;-63
2024/02/15 04:03:34;;;;;;;8.00;2.90;;;;;;;11.58;100.00;101454.84;5117153;27;20387;-67
2024/02/15 04:06:24;;;;;;;9.43;3.20;;;;;;;11.57;100.00;101448.56;5110116;28;20096;-65
2024/02/15 04:09:12;;;;;;;10.52;3.95;;;;;;;11.56;100.00;101444.19;5120167;28;20047;-62
2024/02/15 04:12:00;;;;;;;10.70;3.50;;;;;;;11.57;100.00;101453.19;5097661;28;20062;-64
2024/02/15 04:14:49;;;;;;;8.07;3.22;;;;;;;11.57;100.00;101453.19;5092748;27;20096;-66
2024/02/15 04:17:38;;;;;;;11.77;3.15;;;;;;;11.56;100.00;101455.09;5120149;27;20084;-66
2024/02/15 04:20:26;;;;;;;9.73;3.30;;;;;;;11.55;100.00;101453.47;5112338;27;20439;-67
2024/02/15 04:23:14;;;;;;;9.60;3.78;;;;;;;11.55;100.00;101463.56;5113520;28;20035;-66
2024/02/15 04:26:03;;;;;;;11.30;3.38;;;;;;;11.56;100.00;101451.53;5127900;27;20494;-66
2024/02/15 04:28:52;;;;;;;15.98;3.83;;;;;;;11.57;100.00;101455.91;5106157;27;20043;-66
2024/02/15 04:31:40;;;;;;;9.88;3.15;;;;;;;11.56;100.00;101452.38;5121360;27;20110;-67
2024/02/15 04:34:28;;;;;;;12.52;3.10;;;;;;;11.57;100.00;101447.72;5107846;27;20130;-66
2024/02/15 04:37:17;;;;;;;11.30;3.55;;;;;;;11.56;100.00;101452.38;5115277;27;20043;-66
2024/02/15 04:40:13;;;;;;;9.85;3.05;;;;;;;11.56;100.00;101449.63;5098901;28;20053;-65
2024/02/15 04:43:04;;;;;;;11.70;3.05;;;;;;;11.56;100.00;101441.44;5096549;28;20071;-66
2024/02/15 04:45:52;;;;;;;10.98;3.75;;;;;;;11.59;100.00;101445.56;5078467;28;20047;-66
2024/02/15 04:48:43;;;;;;;10.35;3.00;;;;;;;11.58;100.00;101438.47;5096810;28;20036;-66
2024/02/15 04:51:31;;;;;;;9.40;3.30;;;;;;;11.59;100.00;101432.72;5113862;28;20035;-66
2024/02/15 04:54:19;;;;;;;9.13;2.90;;;;;;;11.58;100.00;101433.00;5112540;27;20135;-66
2024/02/15 04:57:11;;;;;;;11.02;3.10;;;;;;;11.57;100.00;101432.19;5113499;28;20077;-67
2024/02/15 04:59:59;;;;;;;9.88;3.13;;;;;;;11.57;100.00;101418.56;5075475;28;20480;-66
2024/02/15 05:02:49;;;;;;;9.25;3.60;;;;;;;11.56;100.00;101421.53;5075798;28;20487;-66
2024/02/15 05:05:38;;;;;;;8.93;2.83;;;;;;;11.56;100.00;101422.34;5125489;27;20039;-66
2024/02/15 05:08:28;;;;;;;7.55;2.85;;;;;;;11.56;100.00;101424.25;5112161;28;20570;-66
2024/02/15 05:11:18;;;;;;;10.38;3.17;;;;;;;11.55;100.00;101428.09;5112128;28;20039;-66
2024/02/15 05:14:06;;;;;;;11.77;4.03;;;;;;;11.55;100.00;101428.09;5107999;27;20035;-66
2024/02/15 05:16:54;;;;;;;10.35;3.38;;;;;;;11.54;100.00;101424.50;5118704;27;20376;-66
2024/02/15 05:19:42;;;;;;;11.32;3.38;;;;;;;11.54;100.00;101437.34;5115749;27;20513;-66
2024/02/15 05:22:30;;;;;;;6.50;2.90;;;;;;;11.55;100.00;101439.81;5077541;28;20379;-65
2024/02/15 05:25:22;;;;;;;8.95;3.13;;;;;;;11.55;100.00;101436.28;5097454;28;20047;-67
2024/02/15 05:28:13;;;;;;;9.43;3.20;;;;;;;11.55;100.00;101439.00;5112957;28;20128;-66
2024/02/15 05:31:20;;;;;;;9.48;3.20;;;;;;;11.56;100.00;101430.53;5111639;28;20080;-66
2024/02/15 05:34:11;;;;;;;8.15;2.80;;;;;;;11.58;100.00;101433.00;5112289;28;20051;-66
2024/02/15 05:37:00;;;;;;;9.32;2.83;;;;;;;11.58;100.00;101441.19;5099204;28;20043;-66
2024/02/15 05:39:53;;;;;;;8.82;3.33;;;;;;;11.58;100.00;101439.28;5100092;28;20046;-64
2024/02/15 05:42:45;;;;;;;6.97;2.80;;;;;;;11.60;100.00;101437.13;5103985;28;20056;-64
2024/02/15 05:45:34;;;;;;;7.57;2.70;;;;;;;11.61;100.00;101430.56;5086134;27;20046;-65
2024/02/15 05:48:22;;;;;;;6.97;2.80;;;;;;;11.59;100.00;101435.47;5133758;27;20043;-65
2024/02/15 05:51:10;;;;;;;8.80;3.25;;;;;;;11.58;100.00;101428.38;5132638;27;20091;-66
2024/02/15 05:53:59;;;;;;;8.68;3.35;;;;;;;11.58;100.00;101430.28;5094534;28;20489;-67
2024/02/15 05:56:51;;;;;;;5.88;2.60;;;;;;;11.62;100.00;101424.03;5123734;27;20046;-66
2024/02/15 05:59:40;;;;;;;8.55;3.00;;;;;;;11.60;100.00;101419.94;5132565;27;20455;-66
2024/02/15 06:02:28;;;;;;;6.70;2.72;;;;;;;11.60;100.00;101409.00;5100412;28;20040;-66
2024/02/15 06:05:16;;;;;;;8.13;2.70;;;;;;;11.61;100.00;101397.81;4758751;28;10000072;-66
2024/02/15 06:08:06;;;;;;;9.90;3.15;;;;;;;11.61;100.00;101391.53;5112702;28;20059;-65
2024/02/15 06:10:54;;;;;;;7.15;2.65;;;;;;;11.60;100.00;101384.44;5107888;27;20147;-66
2024/02/15 06:13:42;;;;;;;8.23;3.17;;;;;;;11.61;100.00;101369.72;5059569;28;20044;-67
2024/02/15 06:16:30;;;;;;;8.25;3.05;;;;;;;11.60;100.00;101348.97;5072004;28;20044;-65
2024/02/15 06:19:19;;;;;;;8.27;2.17;;;;;;;11.62;100.00;101335.88;5074506;28;20044;-67
2024/02/15 06:22:14;;;;;;;;;;;;;;;11.61;100.00;101323.31;5056623;28;20044;-65
2024/02/15 06:25:02;;;;;;;8.70;3.30;;;;;;;11.61;100.00;101317.84;5088845;28;19922;-66
2024/02/15 06:27:58;;;;;;;7.88;2.75;;;;;;;11.59;100.00;101325.47;5072654;28;20044;-67
2024/02/15 06:40:24;;;;;;;8.73;2.70;;;;;;;11.70;100.00;101370.88;4997944;28;20631;-66
2024/02/15 06:43:12;;;;;;;10.05;3.30;;;;;;;11.67;100.00;101366.75;5099173;28;20501;-67
2024/02/15 06:45:59;;;;;;;7.88;2.85;;;;;;;11.64;100.00;101378.22;5127570;28;20058;-66
2024/02/15 06:48:47;;;;;;;10.05;3.60;;;;;;;11.60;100.00;101371.63;5120284;28;20445;-66
2024/02/15 06:51:36;;;;;;;11.55;3.83;;;;;;;11.56;100.00;101386.88;5093368;28;20403;-66
2024/02/15 06:54:24;;;;;;;9.05;3.33;;;;;;;11.53;100.00;101392.84;5113543;27;20036;-66
2024/02/15 06:57:12;;;;;;;10.55;3.40;;;;;;;11.50;100.00;101396.09;5132486;27;20046;-67
2024/02/15 07:00:00;;;;;;;11.98;3.35;;;;;;;11.47;100.00;101393.88;5103509;28;20130;-66
2024/02/15 07:02:48;;;;;;;11.55;4.45;;;;;;;11.46;100.00;101408.63;5097463;28;20051;-66
2024/02/15 07:05:38;;;;;;;8.10;3.30;;;;;;;11.47;100.00;101410.25;5076193;28;20044;-66
2024/02/15 07:08:26;;;;;;;7.65;3.08;;;;;;;11.51;100.00;101416.84;5076738;28;20058;-67
2024/02/15 07:11:14;;;;;;;8.52;2.70;;;;;;;11.52;100.00;101418.50;5093948;28;20382;-66
2024/02/15 07:14:04;;;;;;;6.97;2.70;;;;;;;11.52;100.00;101413.06;5127942;27;20103;-65
2024/02/15 07:16:52;;;;;;;10.32;3.10;;;;;;;11.54;100.00;101391.75;5116123;27;20043;-66
2024/02/15 07:19:44;;;;;;;6.72;2.35;;;;;;;11.56;100.00;101386.88;5069985;28;20036;-65
2024/02/15 07:22:33;;;;;;;6.28;2.60;;;;;;;11.58;100.00;101378.44;5092874;28;20051;-65
2024/02/15 07:25:20;;;;;;;9.88;3.20;;;;;;;11.58;100.00;101372.97;5091917;28;20220;-66
2024/02/15 07:28:09;;;;;;;4.65;2.30;;;;;;;11.59;100.00;101369.13;5090563;28;20182;-66
2024/02/15 07:30:57;;;;;;;6.95;2.15;;;;;;;11.61;100.00;101361.53;5108960;28;20055;-66
2024/02/15 07:33:47;;;;;;;6.18;2.78;;;;;;;11.59;100.00;101359.03;5103819;27;20482;-66
2024/02/15 07:36:36;;;;;;;5.00;2.10;;;;;;;11.61;100.00;101377.91;5093619;28;20035;-66
2024/02/15 07:39:24;;;;;;;5.60;2.50;;;;;;;11.66;100.00;101377.94;5091024;28;20495;-63
2024/02/15 07:42:13;;;;;;;7.60;2.47;;;;;;;11.66;100.00;101369.75;5085180;28;20043;-63
2024/02/15 07:45:02;;;;;;;6.35;3.10;;;;;;;11.63;100.00;101375.72;5114583;27;20065;-61
2024/02/15 07:47:50;;;;;;;8.73;3.22;;;;;;;11.59;100.00;101374.59;5100124;28;20475;-63
2024/02/15 07:50:40;;;;;;;7.82;3.22;;;;;;;11.56;100.00;101372.41;5068446;28;20082;-63
2024/02/15 07:53:28;;;;;;;10.35;3.55;;;;;;;11.52;100.00;101375.66;5094044;28;20055;-64
2024/02/15 07:56:17;;;;;;;6.82;2.83;;;;;;;11.51;100.00;101374.00;5127497;27;20127;-61
2024/02/15 07:59:07;;;;;;;6.95;3.28;;;;;;;11.54;100.00;101375.38;5130433;27;20493;-61
2024/02/15 08:01:55;;;;;;;6.57;3.08;;;;;;;11.55;100.00;101374.31;5090765;28;20290;-62
2024/02/15 08:04:44;;;;;;;7.60;2.50;;;;;;;11.58;100.00;101372.97;5098609;28;20051;-63
2024/02/15 08:07:34;;;;;;;5.68;2.50;;;;;;;11.57;100.00;101379.50;5079826;28;20060;-63
2024/02/15 08:10:22;;;;;;;5.90;2.65;;;;;;;11.58;100.00;101381.16;5095763;28;20127;-64
2024/02/15 08:13:10;;;;;;;6.65;2.42;;;;;;;11.59;100.00;101372.69;5094315;28;20139;-63
2024/02/15 08:15:58;;;;;;;7.15;2.95;;;;;;;11.60;100.00;101373.53;5116221;27;20050;-63
2024/02/15 08:18:46;;;;;;;9.68;3.35;;;;;;;11.57;100.00;101363.13;5149265;27;20602;-63
2024/02/15 08:21:41;;;;;;;8.20;3.25;;;;;;;11.56;100.00;101370.50;5106290;27;20039;-64
2024/02/15 08:24:29;;;;;;;10.73;3.42;;;;;;;11.54;100.00;101360.91;5114153;27;20064;-63
2024/02/15 08:27:17;;;;;;;15.35;4.72;;;;;;;11.58;100.00;101372.97;5120507;27;20048;-62
2024/02/15 08:30:08;;;;;;;14.65;4.60;;;;;;;11.60;100.00;101362.63;5120719;28;20040;-63
2024/02/15 08:32:58;;;;;;;16.00;5.65;;;;;;;11.63;100.00;101359.34;5113256;28;20047;-62
2024/02/15 08:35:46;;;;;;;10.75;3.97;;;;;;;11.65;100.00;101368.09;5113085;28;20047;-63
2024/02/15 08:38:37;;;;;;;11.88;4.18;;;;;;;11.63;100.00;101359.34;5131408;27;20039;-63
2024/02/15 08:41:26;;;;;;;11.90;4.35;;;;;;;11.64;100.00;101364.56;5118265;27;20047;-63
2024/02/15 08:44:15;;;;;;;20.48;6.03;;;;;;;11.66;100.00;101358.81;5133756;27;20035;-63
2024/02/15 08:47:04;;;;;;;10.90;4.28;;;;;;;11.67;100.00;101365.94;5131620;27;20051;-62
2024/02/15 08:49:53;;;;;;;9.68;3.40;;;;;;;11.66;100.00;101358.81;5113388;28;20043;-62
2024/02/15 08:52:41;;;;;;;12.23;4.22;;;;;;;11.68;100.00;101356.66;5113458;28;20526;-62
2024/02/15 08:55:29;;;;;;;9.40;3.70;;;;;;;11.68;100.00;101362.13;5112384;28;20431;-63
2024/02/15 08:58:17;;;;;;;7.55;2.90;;;;;;;11.67;100.00;101352.28;5088067;27;20136;-63
2024/02/15 09:01:05;;;;;;;10.65;3.47;;;;;;;11.67;100.00;101355.84;5115272;28;20487;-62
2024/02/15 09:03:53;;;;;;;8.02;2.97;;;;;;;11.65;100.00;101357.19;5113751;28;20044;-64
2024/02/15 09:06:42;;;;;;;12.27;3.70;;;;;;;11.67;100.00;101352.28;5109152;28;20048;-63
2024/02/15 09:09:31;;;;;;;13.23;4.07;;;;;;;11.68;100.00;101354.75;5093561;27;20388;-64
2024/02/15 09:12:19;;;;;;;11.40;4.22;;;;;;;11.70;100.00;101349.03;5120196;27;20130;-64
2024/02/15 09:15:08;;;;;;;9.45;3.80;;;;;;;11.71;100.00;101350.66;5112913;28;20105;-64
2024/02/15 09:17:57;;;;;;;12.13;4.30;;;;;;;11.73;100.00;101348.50;5088741;28;20040;-64
2024/02/15 09:20:48;;;;;;;14.30;4.97;;;;;;;11.75;100.00;101349.06;5115019;27;20437;-62
2024/02/15 09:23:37;;;;;;;13.88;4.65;;;;;;;11.78;100.00;101348.53;5132716;27;20047;-64
2024/02/15 09:26:27;;;;;;;12.20;4.25;;;;;;;11.83;100.00;101354.03;5117237;27;20137;-63
2024/02/15 09:29:15;;;;;;;16.73;5.30;;;;;;;11.82;100.00;101352.38;5117419;27;20048;-64
2024/02/15 09:32:03;;;;;;;14.82;4.35;;;;;;;11.87;100.00;101360.63;5077883;28;20052;-63
2024/02/15 09:34:51;;;;;;;15.57;4.65;;;;;;;11.89;100.00;101353.00;5078253;28;20411;-63
2024/02/15 09:37:44;;;;;;;11.50;3.47;;;;;;;11.89;100.00;101355.75;5091462;28;20055;-63
2024/02/15 09:40:34;;;;;;;14.80;4.20;;;;;;;11.90;100.00;101349.19;5107623;27;20141;-63
2024/02/15 09:43:25;;;;;;;12.20;4.20;;;;;;;11.91;100.00;101359.03;5117609;27;20055;-64
2024/02/15 09:46:14;;;;;;;15.20;4.25;;;;;;;11.91;100.00;101366.41;5132721;27;20074;-63
2024/02/15 09:49:03;;;;;;;11.07;4.00;;;;;;;11.93;100.00;101359.59;5117864;27;20135;-63
2024/02/15 09:51:52;;;;;;;13.07;3.83;;;;;;;11.96;100.00;101374.63;5103632;28;20189;-62
2024/02/15 09:54:44;;;;;;;11.20;3.95;;;;;;;11.93;100.00;101362.34;5112849;28;20518;-63
2024/02/15 09:57:32;;;;;;;14.13;3.55;;;;;;;11.94;100.00;101361.22;5080266;28;20479;-63
2024/02/15 10:00:20;;;;;;;10.82;3.67;;;;;;;11.93;100.00;101348.69;5106261;27;20035;-62
2024/02/15 10:03:11;;;;;;;7.93;3.30;;;;;;;11.92;100.00;101347.00;5132204;27;20043;-64
2024/02/15 10:06:00;;;;;;;8.23;3.42;;;;;;;11.91;100.00;101348.13;5116938;27;20044;-63
2024/02/15 10:08:48;;;;;;;7.65;3.58;;;;;;;11.92;100.00;101347.00;5107483;28;20059;-63
2024/02/15 10:11:37;;;;;;;12.10;3.75;;;;;;;11.94;100.00;101344.84;5121738;27;20043;-63
2024/02/15 10:14:26;;;;;;;9.75;3.40;;;;;;;11.97;100.00;101354.41;5111899;28;20055;-63
2024/02/15 10:17:17;;;;;;;9.20;3.58;;;;;;;11.98;100.00;101344.31;5096922;28;20062;-64
2024/02/15 10:20:06;;;;;;;7.40;3.15;;;;;;;11.99;100.00;101344.06;5102175;28;20527;-62
2024/02/15 10:23:09;;;;;;;8.95;3.33;;;;;;;12.00;100.00;101350.34;5097490;28;20076;-65
2024/02/15 10:25:58;;;;;;;7.07;3.15;;;;;;;12.01;100.00;101355.53;5112238;28;20044;-64
2024/02/15 10:28:47;;;;;;;7.28;3.08;;;;;;;12.01;100.00;101361.00;5109840;28;20058;-63
2024/02/15 10:31:41;;;;;;;10.23;3.17;;;;;;;12.05;100.00;101344.91;5112520;28;20046;-63
2024/02/15 10:34:30;;;;;;;10.95;3.97;;;;;;;12.11;100.00;101352.03;5096662;28;20044;-63
2024/02/15 10:37:20;;;;;;;8.82;3.33;;;;;;;12.12;100.00;101350.94;5096613;28;20502;-63
2024/02/15 10:40:09;;;;;;;6.47;3.22;;;;;;;12.12;100.00;101356.41;5100312;28;20119;-63
2024/02/15 10:42:59;;;;;;;10.05;3.33;;;;;;;12.10;100.00;101347.69;5111693;28;20498;-65
2024/02/15 10:45:49;;;;;;;9.38;3.28;;;;;;;12.09;100.00;101349.56;5096176;28;20427;-63
2024/02/15 10:48:37;;;;;;;8.35;3.05;;;;;;;12.08;100.00;101345.19;5078134;28;20047;-64
2024/02/15 10:51:27;;;;;;;9.02;3.58;;;;;;;12.10;100.00;101347.69;5110846;28;20050;-65
2024/02/15 10:54:25;;;;;;;9.00;3.22;;;;;;;12.11;100.00;101346.56;5103779;28;20496;-63
2024/02/15 10:57:15;;;;;;;8.98;2.90;;;;;;;12.11;100.00;101349.31;4389449;28;10000284;-64
2024/02/15 11:00:10;;;;;;;9.35;3.40;;;;;;;12.12;100.00;101329.09;5094042;28;20051;-65
2024/02/15 11:03:05;;;;;;;9.57;3.50;;;;;;;12.13;100.00;101330.75;5094193;28;20511;-63
2024/02/15 11:05:55;;;;;;;7.70;3.58;;;;;;;12.15;100.00;101340.31;5092765;28;20063;-63
2024/02/15 11:08:44;;;;;;;11.27;3.25;;;;;;;12.20;100.00;101336.78;5070239;28;20569;-62
2024/02/15 11:11:33;;;;;;;8.55;3.80;;;;;;;12.25;100.00;101336.81;5092872;28;20051;-63
2024/02/15 11:14:29;;;;;;;11.07;4.80;;;;;;;12.29;100.00;101337.09;5094095;28;20487;-63
2024/02/15 11:17:39;;;;;;;11.05;4.38;;;;;;;12.30;100.00;101336.84;5105672;28;20054;-64
2024/02/15 11:20:34;;;;;;;11.82;5.43;;;;;;;12.30;100.00;101336.00;5088611;28;20052;-64
2024/02/15 11:23:28;;;;;;;8.18;3.20;;;;;;;12.28;100.00;101339.00;5073650;28;20464;-64
2024/02/15 11:26:47;;;;;;;10.52;4.07;;;;;;;12.29;100.00;101332.47;5082615;28;20130;-64
2024/02/15 11:29:56;;;;;;;9.77;4.15;;;;;;;12.29;100.00;101332.47;5096959;28;20044;-63
2024/02/15 11:32:56;;;;;;;7.60;3.80;;;;;;;12.31;100.00;101332.19;5097520;28;20071;-64
2024/02/15 11:36:07;;;;;;;11.88;5.03;;;;;;;12.33;100.00;101327.28;5106692;28;20099;-64
2024/02/15 11:38:55;;;;;;;12.82;5.13;;;;;;;12.34;100.00;101321.56;5092488;28;20131;-63
2024/02/15 11:41:43;;;;;;;13.40;4.93;;;;;;;12.36;100.00;101324.00;5107191;28;20054;-65
2024/02/15 11:44:32;;;;;;;12.57;5.20;;;;;;;12.38;100.00;101310.09;5089674;28;20041;-63
2024/02/15 11:47:20;;;;;;;13.88;5.43;;;;;;;12.40;100.00;101308.72;5090920;28;20392;-64
2024/02/15 11:50:12;;;;;;;10.98;5.72;;;;;;;12.43;100.00;101312.81;5095031;28;20152;-63
2024/02/15 11:53:10;;;;;;;11.18;5.38;;;;;;;12.45;100.00;101305.19;5092350;28;20200;-64
2024/02/15 11:56:04;;;;;;;12.80;6.32;;;;;;;12.49;100.00;101306.31;5082097;27;20043;-62
2024/02/15 11:59:10;;;;;;;10.63;4.90;;;;;;;12.50;100.00;101294.25;5089925;28;20046;-64
2024/02/15 12:20:41;;;;;;;8.60;3.75;;;;;;;12.67;100.00;101266.69;5075595;28;20404;-64
2024/02/15 12:23:33;;;;;;;9.20;3.28;;;;;;;12.70;100.00;101258.78;5088250;28;20083;-62
2024/02/15 12:26:23;;;;;;;11.00;3.40;;;;;;;12.69;100.00;101259.84;5121466;27;20412;-62
2024/02/15 12:29:16;;;;;;;7.80;3.05;;;;;;;12.70;100.00;101247.84;5142428;27;20107;-63
2024/02/15 12:32:04;;;;;;;9.27;3.15;;;;;;;12.72;100.00;101245.66;5131101;27;20100;-66
2024/02/15 12:34:54;;;;;;;10.70;3.60;;;;;;;12.75;100.00;101244.28;5096174;27;20069;-64
2024/02/15 12:37:42;;;;;;;9.82;3.70;;;;;;;12.79;100.00;101245.38;5087666;28;20036;-65
2024/02/15 12:40:36;;;;;;;8.15;3.22;;;;;;;12.83;100.00;101240.19;5103866;28;20040;-64
2024/02/15 12:43:24;;;;;;;9.07;3.40;;;;;;;12.85;100.00;101238.00;5109477;28;20507;-64
2024/02/15 12:46:12;;;;;;;8.55;3.60;;;;;;;12.91;100.00;101236.91;5126384;27;20047;-64
2024/02/15 12:49:15;;;;;;;9.52;4.18;;;;;;;12.93;100.00;101235.53;5121127;27;20044;-64
2024/02/15 12:52:38;;;;;;;8.82;3.65;;;;;;;12.95;100.00;101235.28;5101736;28;20112;-64
2024/02/15 12:55:28;;;;;;;9.30;3.92;;;;;;;12.98;100.00;101226.50;5098497;28;20054;-64
2024/02/15 12:58:17;;;;;;;11.77;4.78;;;;;;;13.03;100.00;101222.94;5097800;28;20526;-64
2024/02/15 13:01:05;;;;;;;7.90;3.08;;;;;;;13.07;100.00;101224.88;5112864;28;20130;-64
2024/02/15 13:03:52;;;;;;;15.68;6.68;;;;;;;13.10;100.00;101221.56;5113051;28;20044;-66
2024/02/15 13:06:41;;;;;;;12.05;5.65;;;;;;;13.16;100.00;101208.72;5098574;28;20043;-64
2024/02/15 13:09:29;;;;;;;9.77;4.68;;;;;;;13.18;100.00;101204.63;5112986;28;20487;-64
2024/02/15 13:12:18;;;;;;;7.07;3.15;;;;;;;13.17;100.00;101202.97;5058918;28;20043;-65
2024/02/15 13:15:11;;;;;;;9.35;3.45;;;;;;;13.19;100.00;101211.72;5080853;28;20051;-64
2024/02/15 13:17:59;;;;;;;11.35;5.97;;;;;;;13.24;100.00;101204.59;5124760;27;20395;-65
2024/02/15 13:20:52;;;;;;;9.05;3.60;;;;;;;13.25;100.00;101198.03;5107068;28;20043;-64
2024/02/15 13:23:40;;;;;;;8.60;3.30;;;;;;;13.24;100.00;101190.91;5097161;28;20229;-63
2024/02/15 13:26:30;;;;;;;14.07;3.53;;;;;;;13.27;100.00;101179.41;5111229;28;20130;-65
2024/02/15 13:29:18;;;;;;;8.63;3.00;;;;;;;13.31;100.00;101180.53;5110974;28;20122;-65
2024/02/15 13:32:06;;;;;;;10.07;3.17;;;;;;;13.33;100.00;101172.88;5092367;28;20055;-65